Time;durP1;ratioP1;P1;durP2;ratioP2;P2;SDS_P1;SDS_P2;PMS_P1;PMS_P2;Temp;Humidity;BMP_temperature;BMP_pressure;BME280_temperature;BME280_humidity;BME280_pressure;Samples;Min_cycle;Max_cycle;Signal;HPM_P1;HPM_P2
2023/12/06 00:01:53;;;;;;;53.00;38.10;;;;;;;0.78;100.00;100923.53;5086034;28;20132;-71
2023/12/06 00:04:18;;;;;;;51.72;37.50;;;;;;;0.80;100.00;100918.41;5084801;28;20032;-71
2023/12/06 00:06:44;;;;;;;53.67;36.10;;;;;;;0.80;100.00;100923.59;5084798;28;20436;-68
2023/12/06 00:09:09;;;;;;;52.38;37.63;;;;;;;0.79;100.00;100916.63;5085527;28;20084;-71
2023/12/06 00:11:34;;;;;;;51.55;36.20;;;;;;;0.86;100.00;100921.28;5083391;28;20025;-70
2023/12/06 00:14:00;;;;;;;52.40;36.90;;;;;;;0.81;100.00;100923.66;5086762;28;20028;-71
2023/12/06 00:16:25;;;;;;;51.72;36.17;;;;;;;0.84;100.00;100925.53;5082978;28;20028;-71
2023/12/06 00:18:50;;;;;;;50.75;35.55;;;;;;;0.83;100.00;100934.16;5085650;28;20024;-71
2023/12/06 00:21:16;;;;;;;53.17;37.88;;;;;;;0.81;100.00;100933.19;5084418;28;20093;-68
2023/12/06 00:23:41;;;;;;;50.47;36.58;;;;;;;0.81;100.00;100941.00;5084257;28;20060;-72
2023/12/06 00:26:07;;;;;;;51.97;37.30;;;;;;;0.84;100.00;100939.41;5085739;28;20035;-70
2023/12/06 00:28:32;;;;;;;52.50;38.17;;;;;;;0.82;100.00;100938.47;5082262;28;20487;-72
2023/12/06 00:30:58;;;;;;;51.80;36.60;;;;;;;0.84;100.00;100946.34;5085533;28;20036;-69
2023/12/06 00:33:23;;;;;;;51.25;37.35;;;;;;;0.83;100.00;100949.75;5083413;28;20056;-71
2023/12/06 00:35:49;;;;;;;50.47;36.63;;;;;;;0.84;100.00;100946.34;5084654;28;20479;-71
2023/12/06 00:38:15;;;;;;;53.03;37.78;;;;;;;0.83;100.00;100953.28;5084336;28;20036;-72
2023/12/06 00:40:40;;;;;;;53.90;37.08;;;;;;;0.80;100.00;100954.84;5083590;28;20143;-73
2023/12/06 00:43:05;;;;;;;52.78;37.13;;;;;;;0.83;100.00;100957.56;5085404;28;20473;-73
2023/12/06 00:45:31;;;;;;;51.83;37.40;;;;;;;0.83;100.00;100961.09;5082591;28;20387;-73
2023/12/06 00:47:56;;;;;;;53.03;38.38;;;;;;;0.84;100.00;100962.84;5085580;28;20039;-73
2023/12/06 00:50:21;;;;;;;50.63;36.20;;;;;;;0.85;100.00;100963.75;5083008;28;20028;-73
2023/12/06 00:52:47;;;;;;;51.58;36.05;;;;;;;0.85;100.00;100974.16;5084552;28;20515;-73
2023/12/06 00:55:13;;;;;;;53.15;38.13;;;;;;;0.80;100.00;100971.38;5084229;28;20036;-73
2023/12/06 00:57:38;;;;;;;53.40;36.17;;;;;;;0.86;100.00;100973.38;5082834;28;20385;-73
2023/12/06 01:00:06;;;;;;;53.10;37.67;;;;;;;0.83;100.00;100976.72;5085598;28;20024;-73
2023/12/06 01:02:31;;;;;;;50.75;36.30;;;;;;;0.82;100.00;100985.31;5082045;28;20098;-73
2023/12/06 01:04:56;;;;;;;52.20;36.67;;;;;;;0.81;100.00;100982.66;5085353;28;20414;-73
2023/12/06 01:07:22;;;;;;;49.60;35.88;;;;;;;0.88;100.00;100984.72;5082886;28;20034;-73
2023/12/06 01:09:47;;;;;;;51.00;36.55;;;;;;;0.86;100.00;100991.59;5083925;28;20111;-73
2023/12/06 01:12:13;;;;;;;52.13;36.72;;;;;;;0.86;100.00;100994.19;5083820;28;20031;-73
2023/12/06 01:14:38;;;;;;;49.05;35.08;;;;;;;0.93;100.00;100993.63;5083001;28;20494;-73
2023/12/06 01:17:03;;;;;;;48.72;35.10;;;;;;;0.84;100.00;100993.19;5083929;28;20133;-73
2023/12/06 01:19:30;;;;;;;47.00;34.60;;;;;;;0.94;100.00;101000.59;5081868;28;20036;-71
2023/12/06 01:21:55;;;;;;;47.75;34.00;;;;;;;0.90;100.00;101003.00;5084809;28;20042;-71
2023/12/06 01:24:20;;;;;;;47.53;34.83;;;;;;;0.83;100.00;100997.53;5082570;28;20028;-73
2023/12/06 01:26:46;;;;;;;47.97;33.78;;;;;;;0.88;100.00;101008.16;5083622;28;20051;-72
2023/12/06 01:29:11;;;;;;;46.08;33.58;;;;;;;0.90;100.00;101009.09;5083813;28;20103;-72
2023/12/06 01:31:38;;;;;;;44.67;32.65;;;;;;;0.88;100.00;101010.75;5080918;28;20033;-71
2023/12/06 01:34:05;;;;;;;45.63;32.05;;;;;;;0.92;100.00;101015.28;5085048;28;20039;-72
2023/12/06 01:36:31;;;;;;;47.25;33.50;;;;;;;0.84;100.00;101021.84;5081338;28;20548;-72
2023/12/06 01:38:56;;;;;;;47.88;33.80;;;;;;;0.81;100.00;101019.09;5084373;28;20097;-72
2023/12/06 01:41:22;;;;;;;47.08;34.13;;;;;;;0.82;100.00;101028.69;5082203;28;20032;-72
2023/12/06 01:43:47;;;;;;;47.75;34.28;;;;;;;0.79;100.00;101025.94;5083293;28;20103;-72
2023/12/06 01:46:12;;;;;;;47.00;33.88;;;;;;;0.80;100.00;101028.63;5083650;28;20363;-69
2023/12/06 01:48:39;;;;;;;46.65;33.28;;;;;;;0.79;100.00;101031.16;5082069;28;20441;-71
2023/12/06 01:51:06;;;;;;;46.85;34.22;;;;;;;0.78;100.00;101034.56;5084448;28;20019;-72
2023/12/06 01:53:32;;;;;;;46.63;33.78;;;;;;;0.80;100.00;101036.44;5081206;28;20103;-72
2023/12/06 01:55:58;;;;;;;47.58;34.58;;;;;;;0.78;100.00;101034.56;5083468;28;20115;-73
2023/12/06 01:58:25;;;;;;;46.10;33.33;;;;;;;0.79;100.00;101041.56;5081636;28;20484;-72
2023/12/06 02:00:51;;;;;;;46.63;34.08;;;;;;;0.79;100.00;101046.78;5083357;28;20482;-70
2023/12/06 02:03:18;;;;;;;45.70;32.75;;;;;;;0.80;100.00;101038.13;5082884;28;20111;-69
2023/12/06 02:05:44;;;;;;;45.83;33.83;;;;;;;0.80;100.00;101048.53;5082369;28;20040;-72
2023/12/06 02:08:10;;;;;;;44.55;32.25;;;;;;;0.83;100.00;101046.06;5083558;28;20382;-72
2023/12/06 02:10:35;;;;;;;44.35;32.25;;;;;;;0.83;100.00;101053.88;5081301;28;20035;-73
2023/12/06 02:13:01;;;;;;;45.03;31.90;;;;;;;0.82;100.00;101057.31;5084454;28;20573;-69
2023/12/06 02:15:26;;;;;;;43.83;32.17;;;;;;;0.81;100.00;101055.53;5081232;28;20032;-72
2023/12/06 02:17:52;;;;;;;44.25;33.03;;;;;;;0.82;100.00;101062.53;5083511;28;20032;-71
2023/12/06 02:20:18;;;;;;;43.85;31.92;;;;;;;0.80;100.00;101069.34;5082383;28;20027;-71
2023/12/06 02:22:43;;;;;;;43.83;32.50;;;;;;;0.83;100.00;101059.09;5082284;28;20053;-72
2023/12/06 02:25:14;;;;;;;43.92;32.67;;;;;;;0.84;100.00;101059.16;5083517;28;20462;-71
2023/12/06 02:27:41;;;;;;;44.15;33.33;;;;;;;0.81;100.00;101061.63;5081486;28;20032;-71
2023/12/06 02:30:07;;;;;;;43.78;31.58;;;;;;;0.81;100.00;101058.13;5083847;28;20036;-71
2023/12/06 02:32:33;;;;;;;43.45;32.25;;;;;;;0.79;100.00;101055.47;5081242;28;20057;-72
2023/12/06 02:35:00;;;;;;;43.90;32.33;;;;;;;0.81;100.00;101063.34;5084106;28;20082;-72
2023/12/06 02:37:27;;;;;;;43.60;31.63;;;;;;;0.84;100.00;101055.66;5079801;28;20123;-72
2023/12/06 02:39:54;;;;;;;42.03;31.60;;;;;;;0.85;100.00;101060.06;5083259;28;20052;-72
2023/12/06 02:42:19;;;;;;;42.22;30.95;;;;;;;0.86;100.00;101069.69;5081950;28;20069;-71
2023/12/06 02:44:45;;;;;;;41.47;30.95;;;;;;;0.86;100.00;101056.66;5082450;28;20029;-71
2023/12/06 02:47:10;;;;;;;42.15;30.98;;;;;;;0.88;100.00;101055.00;5083087;28;20467;-71
2023/12/06 02:49:36;;;;;;;40.75;30.48;;;;;;;0.88;100.00;101057.59;5080848;28;20063;-72
2023/12/06 02:52:01;;;;;;;41.33;30.92;;;;;;;0.95;100.00;101059.69;5084166;28;20028;-72
2023/12/06 02:54:27;;;;;;;41.85;30.63;;;;;;;0.96;100.00;101064.06;5084797;28;20040;-70
2023/12/06 02:56:52;;;;;;;38.53;28.10;;;;;;;1.01;100.00;101062.56;5086919;28;20566;-72
2023/12/06 02:59:17;;;;;;;39.65;29.30;;;;;;;1.02;100.00;101066.97;5086124;28;20123;-72
2023/12/06 03:01:47;;;;;;;40.38;30.45;;;;;;;1.00;100.00;101075.50;5085587;28;20158;-71
2023/12/06 03:04:13;;;;;;;39.97;29.15;;;;;;;1.00;100.00;101067.69;5086631;28;20035;-71
2023/12/06 03:06:38;;;;;;;40.15;30.08;;;;;;;1.03;100.00;101067.84;5084940;28;20032;-72
2023/12/06 03:09:05;;;;;;;39.70;30.48;;;;;;;1.02;100.00;101056.53;5087982;28;20102;-71
2023/12/06 03:11:30;;;;;;;38.72;29.10;;;;;;;1.04;100.00;101062.69;5078905;28;20025;-71
2023/12/06 03:13:55;;;;;;;39.25;29.50;;;;;;;1.13;100.00;101061.34;5087639;28;20035;-73
2023/12/06 03:16:21;;;;;;;38.28;28.77;;;;;;;1.10;100.00;101045.59;5085207;28;20021;-71
2023/12/06 03:18:46;;;;;;;38.90;29.45;;;;;;;1.10;100.00;101056.88;5085644;28;20032;-69
2023/12/06 03:21:11;;;;;;;38.50;29.65;;;;;;;1.11;100.00;101063.88;5086641;28;20085;-72
2023/12/06 03:23:37;;;;;;;37.67;29.13;;;;;;;1.13;100.00;101074.38;5084250;28;20021;-73
2023/12/06 03:26:02;;;;;;;38.20;27.40;;;;;;;1.15;100.00;101073.63;5086073;28;20124;-71
2023/12/06 03:28:28;;;;;;;37.42;28.15;;;;;;;1.15;100.00;101077.94;5084278;28;20029;-71
2023/12/06 03:30:53;;;;;;;37.00;27.88;;;;;;;1.13;100.00;101082.19;5086371;28;20086;-72
2023/12/06 03:33:18;;;;;;;37.80;28.27;;;;;;;1.14;100.00;101086.59;5085403;28;20047;-72
2023/12/06 03:35:44;;;;;;;37.97;28.60;;;;;;;1.18;100.00;101084.19;5084964;28;20422;-71
2023/12/06 03:38:10;;;;;;;36.75;28.00;;;;;;;1.25;100.00;101089.66;5085251;28;20394;-70
2023/12/06 03:40:35;;;;;;;37.92;28.50;;;;;;;1.20;100.00;101087.75;5083811;28;20094;-70
2023/12/06 03:43:01;;;;;;;38.25;28.40;;;;;;;1.22;100.00;101087.81;5085789;28;20028;-71
2023/12/06 03:45:26;;;;;;;37.88;28.58;;;;;;;1.25;100.00;101087.94;5084042;28;20467;-72
2023/12/06 03:47:51;;;;;;;36.72;27.40;;;;;;;1.31;100.00;101085.66;5086001;28;20032;-71
2023/12/06 03:50:17;;;;;;;37.42;26.98;;;;;;;1.32;100.00;101092.63;5085203;28;20453;-71
2023/12/06 03:52:42;;;;;;;37.35;27.42;;;;;;;1.32;100.00;101090.00;5084458;28;20088;-71
2023/12/06 03:55:08;;;;;;;36.30;27.67;;;;;;;1.38;100.00;101094.63;5086556;28;20036;-72
2023/12/06 03:57:33;;;;;;;38.22;27.92;;;;;;;1.39;100.00;101094.69;5083355;28;20032;-73
2023/12/06 03:59:58;;;;;;;36.28;26.15;;;;;;;1.45;100.00;101093.19;5086568;28;20040;-71
2023/12/06 04:02:24;;;;;;;36.30;26.05;;;;;;;1.45;100.00;101101.00;5084208;28;20012;-73
2023/12/06 04:04:49;;;;;;;35.88;26.58;;;;;;;1.48;100.00;101093.31;5067115;28;20028;-73
2023/12/06 04:07:15;;;;;;;35.97;26.42;;;;;;;1.47;100.00;101096.75;5085445;28;20030;-73
2023/12/06 04:09:41;;;;;;;35.20;25.58;;;;;;;1.50;100.00;101097.78;5083986;28;20074;-73
2023/12/06 04:12:07;;;;;;;36.08;26.33;;;;;;;1.51;100.00;101101.28;5086088;28;20478;-73
2023/12/06 04:14:32;;;;;;;35.60;26.95;;;;;;;1.51;100.00;101101.28;5083494;28;20027;-73
2023/12/06 04:16:58;;;;;;;34.75;26.55;;;;;;;1.51;100.00;101101.28;5086115;28;20036;-73
2023/12/06 04:19:23;;;;;;;36.33;26.95;;;;;;;1.51;100.00;101101.28;5084020;28;20383;-73
2023/12/06 04:21:48;;;;;;;36.38;27.05;;;;;;;1.51;100.00;101109.09;5083757;28;20443;-73
2023/12/06 04:24:14;;;;;;;36.10;26.42;;;;;;;1.54;100.00;101117.06;5084146;28;20422;-73
2023/12/06 04:26:39;;;;;;;37.42;26.80;;;;;;;1.59;100.00;101115.56;5083573;28;20502;-73
2023/12/06 04:29:04;;;;;;;36.35;27.42;;;;;;;1.63;100.00;101122.69;5085158;28;20031;-73
2023/12/06 04:31:30;;;;;;;36.25;27.02;;;;;;;1.67;100.00;101121.09;5077386;28;20414;-73
2023/12/06 04:33:55;;;;;;;35.25;27.35;;;;;;;1.61;100.00;101121.72;5084246;28;20445;-73
2023/12/06 04:36:21;;;;;;;36.97;27.85;;;;;;;1.58;100.00;101118.97;5084020;28;20028;-73
2023/12/06 04:38:46;;;;;;;36.70;27.42;;;;;;;1.64;100.00;101123.59;5083886;28;20114;-69
2023/12/06 04:41:12;;;;;;;37.58;29.27;;;;;;;1.58;100.00;101121.59;5085068;28;20048;-72
2023/12/06 04:43:37;;;;;;;38.60;28.65;;;;;;;1.60;100.00;101125.13;5082959;28;20036;-73
2023/12/06 04:46:03;;;;;;;39.53;28.98;;;;;;;1.62;100.00;101131.34;5085790;28;20486;-71
2023/12/06 04:48:28;;;;;;;38.53;29.33;;;;;;;1.61;100.00;101137.34;5082737;28;20037;-71
2023/12/06 04:50:53;;;;;;;38.25;28.77;;;;;;;1.59;100.00;101132.88;5084756;28;20024;-72
2023/12/06 04:53:19;;;;;;;38.00;29.23;;;;;;;1.63;100.00;101138.34;5082426;28;20524;-73
2023/12/06 04:55:44;;;;;;;39.63;29.10;;;;;;;1.61;100.00;101134.75;5083508;28;20036;-72
2023/12/06 04:58:10;;;;;;;38.45;28.08;;;;;;;1.64;100.00;101132.28;5085007;28;20020;-72
2023/12/06 05:00:36;;;;;;;38.78;29.48;;;;;;;1.60;100.00;101135.56;5082277;28;20032;-72
2023/12/06 05:03:02;;;;;;;39.67;29.48;;;;;;;1.64;100.00;101137.50;5078262;28;20487;-72
2023/12/06 05:05:27;;;;;;;40.75;29.85;;;;;;;1.62;100.00;101154.78;5085010;28;20024;-73
2023/12/06 05:07:55;;;;;;;40.40;29.92;;;;;;;1.66;100.00;101148.91;5083269;28;20028;-72
2023/12/06 05:10:21;;;;;;;40.45;30.17;;;;;;;1.63;100.00;101151.38;5082864;28;20033;-73
2023/12/06 05:12:46;;;;;;;40.55;29.63;;;;;;;1.65;100.00;101147.09;5083702;28;20467;-73
2023/12/06 05:15:11;;;;;;;40.95;31.23;;;;;;;1.65;100.00;101161.88;5082109;28;20068;-73
2023/12/06 05:17:37;;;;;;;41.13;31.02;;;;;;;1.67;100.00;101160.19;5085048;28;20028;-73
2023/12/06 05:20:03;;;;;;;42.17;31.60;;;;;;;1.66;100.00;101158.41;5081749;28;20021;-73
2023/12/06 05:22:28;;;;;;;42.50;31.48;;;;;;;1.66;100.00;101156.72;5084828;28;20457;-73
2023/12/06 05:24:53;;;;;;;41.42;32.47;;;;;;;1.67;100.00;101155.88;5082681;28;20032;-73
2023/12/06 05:27:19;;;;;;;43.63;32.83;;;;;;;1.74;100.00;101164.88;5083469;28;20147;-73
2023/12/06 05:29:44;;;;;;;41.72;32.15;;;;;;;1.70;100.00;101163.84;5084333;28;20375;-72
2023/12/06 05:32:10;;;;;;;43.35;32.30;;;;;;;1.73;100.00;101173.50;5082005;28;20111;-74
2023/12/06 05:34:35;;;;;;;43.75;32.20;;;;;;;1.75;100.00;101177.09;5085312;28;20121;-74
2023/12/06 05:37:00;;;;;;;42.63;32.35;;;;;;;1.78;100.00;101176.31;5081372;28;20040;-71
2023/12/06 05:39:26;;;;;;;43.63;32.03;;;;;;;1.82;100.00;101178.25;5084059;28;20050;-72
2023/12/06 05:41:51;;;;;;;44.00;32.17;;;;;;;1.80;100.00;101169.47;5082614;28;20063;-73
2023/12/06 05:44:17;;;;;;;41.55;32.10;;;;;;;1.83;100.00;101178.31;5083362;28;20513;-73
2023/12/06 05:46:42;;;;;;;44.17;32.53;;;;;;;1.88;100.00;101176.81;5084122;28;20110;-73
2023/12/06 05:49:08;;;;;;;42.38;32.58;;;;;;;1.89;100.00;101182.91;5081620;28;20107;-71
2023/12/06 05:51:34;;;;;;;44.22;32.20;;;;;;;1.93;100.00;101179.63;5084988;28;20392;-72
2023/12/06 05:53:59;;;;;;;43.40;31.42;;;;;;;1.96;100.00;101181.50;5081383;28;20025;-73
2023/12/06 05:56:25;;;;;;;44.28;33.65;;;;;;;1.93;100.00;101179.63;5083652;28;20037;-72
2023/12/06 05:58:50;;;;;;;44.72;33.88;;;;;;;1.93;100.00;101182.22;5082714;28;20039;-72
2023/12/06 06:01:15;;;;;;;43.65;31.77;;;;;;;1.98;100.00;101188.56;5082324;28;20028;-72
2023/12/06 06:03:41;;;;;;;45.00;32.72;;;;;;;1.97;100.00;101194.59;5082784;28;20302;-73
2023/12/06 06:06:07;;;;;;;42.15;30.80;;;;;;;1.99;100.00;101187.72;5081303;28;20032;-71
2023/12/06 06:08:34;;;;;;;42.67;31.95;;;;;;;1.95;100.00;101188.41;5077126;28;20029;-72
2023/12/06 06:11:00;;;;;;;43.80;32.38;;;;;;;1.96;100.00;101203.22;5084283;28;20467;-72
2023/12/06 06:13:28;;;;;;;43.85;31.70;;;;;;;1.97;100.00;101194.59;5081626;28;20489;-71
2023/12/06 06:15:54;;;;;;;42.95;31.23;;;;;;;1.99;100.00;101195.53;5083290;28;20079;-72
2023/12/06 06:18:19;;;;;;;41.40;30.08;;;;;;;2.02;100.00;101200.88;5082597;28;20032;-72
2023/12/06 06:20:45;;;;;;;41.80;29.98;;;;;;;2.03;100.00;101199.19;5082004;28;20029;-69
2023/12/06 06:23:11;;;;;;;42.72;31.15;;;;;;;2.01;100.00;101200.81;5083686;28;20102;-71
2023/12/06 06:25:36;;;;;;;40.53;29.67;;;;;;;2.03;100.00;101202.69;5079838;28;20025;-72
2023/12/06 06:28:02;;;;;;;42.15;30.33;;;;;;;2.00;100.00;101210.38;5078488;28;20059;-72
2023/12/06 06:30:27;;;;;;;40.78;28.48;;;;;;;2.07;100.00;101215.03;5087896;28;20036;-72
2023/12/06 06:32:53;;;;;;;41.85;28.90;;;;;;;2.04;100.00;101222.72;5086210;28;20390;-72
2023/12/06 06:35:18;;;;;;;40.50;28.50;;;;;;;2.04;100.00;101216.59;5086493;28;20037;-71
2023/12/06 06:37:44;;;;;;;40.95;28.75;;;;;;;2.07;100.00;101217.66;5087140;28;20031;-72
2023/12/06 06:40:10;;;;;;;40.95;28.65;;;;;;;2.07;100.00;101227.22;5085159;28;20045;-70
2023/12/06 06:42:35;;;;;;;40.45;29.10;;;;;;;2.06;100.00;101231.50;5088512;28;20074;-68
2023/12/06 06:45:02;;;;;;;39.22;28.25;;;;;;;2.09;100.00;101236.84;5084775;28;20487;-72
2023/12/06 06:47:27;;;;;;;40.35;28.38;;;;;;;2.08;100.00;101231.56;5087672;28;20101;-73
2023/12/06 06:49:54;;;;;;;38.33;26.00;;;;;;;2.12;100.00;101237.84;5085738;28;20058;-71
2023/12/06 06:52:20;;;;;;;40.60;28.05;;;;;;;2.12;100.00;101235.22;5086566;28;20158;-72
2023/12/06 06:54:45;;;;;;;38.72;27.60;;;;;;;2.09;100.00;101234.25;5086992;28;20028;-72
2023/12/06 06:57:10;;;;;;;38.42;26.48;;;;;;;2.08;100.00;101237.69;5083514;28;20080;-72
2023/12/06 06:59:36;;;;;;;38.83;26.90;;;;;;;2.12;100.00;101240.44;5088021;28;20103;-72
2023/12/06 07:02:02;;;;;;;40.92;27.90;;;;;;;2.09;100.00;101239.47;5084823;28;20052;-72
2023/12/06 07:04:27;;;;;;;39.03;27.48;;;;;;;2.12;100.00;101243.06;5087420;28;20107;-71
2023/12/06 07:06:53;;;;;;;39.75;27.83;;;;;;;2.12;100.00;101248.28;5085683;28;20115;-72
2023/12/06 07:09:18;;;;;;;38.33;26.40;;;;;;;2.15;100.00;101243.19;5085766;28;20040;-73
2023/12/06 07:11:45;;;;;;;39.45;26.92;;;;;;;2.11;100.00;101241.25;5086567;28;20556;-72
2023/12/06 07:14:11;;;;;;;40.40;27.95;;;;;;;2.14;100.00;101249.22;5084818;28;20391;-73
2023/12/06 07:16:36;;;;;;;39.53;28.75;;;;;;;2.14;100.00;101244.00;5087454;28;20031;-70
2023/12/06 07:19:02;;;;;;;39.10;27.98;;;;;;;2.16;100.00;101239.78;5084017;28;20460;-73
2023/12/06 07:21:27;;;;;;;38.20;27.30;;;;;;;2.16;100.00;101253.69;5086889;28;20043;-73
2023/12/06 07:23:52;;;;;;;39.33;28.00;;;;;;;2.14;100.00;101255.34;5085234;28;20105;-73
2023/12/06 07:26:18;;;;;;;41.45;28.95;;;;;;;2.14;100.00;101255.34;5085443;28;20450;-73
2023/12/06 07:28:44;;;;;;;40.10;28.83;;;;;;;2.16;100.00;101263.25;5085437;28;20028;-73
2023/12/06 07:31:09;;;;;;;41.70;29.13;;;;;;;2.14;100.00;101257.03;5083942;28;20036;-73
2023/12/06 07:33:35;;;;;;;41.38;29.20;;;;;;;2.13;100.00;101260.50;5087307;28;20032;-73
2023/12/06 07:36:01;;;;;;;40.75;28.60;;;;;;;2.03;100.00;101267.00;5082755;28;20458;-73
2023/12/06 07:38:27;;;;;;;39.10;28.35;;;;;;;1.89;100.00;101274.19;5085654;28;20120;-73
2023/12/06 07:40:52;;;;;;;40.20;28.23;;;;;;;1.78;100.00;101276.28;5083793;28;20078;-73
2023/12/06 07:43:18;;;;;;;39.35;28.17;;;;;;;1.70;100.00;101272.44;5085527;28;20483;-73
2023/12/06 07:45:44;;;;;;;39.92;28.38;;;;;;;1.55;100.00;101273.47;5086451;28;20042;-72
2023/12/06 07:48:10;;;;;;;42.25;29.58;;;;;;;1.50;100.00;101279.28;5084146;28;20041;-73
2023/12/06 07:50:35;;;;;;;42.40;29.02;;;;;;;1.44;100.00;101284.22;5086990;28;20471;-73
2023/12/06 07:53:01;;;;;;;41.75;29.90;;;;;;;1.35;100.00;101277.72;5082331;28;20039;-73
2023/12/06 07:55:26;;;;;;;43.47;29.63;;;;;;;1.29;100.00;101280.03;5086294;28;20021;-73
2023/12/06 07:57:52;;;;;;;42.75;30.13;;;;;;;1.19;100.00;101278.72;5084753;28;20032;-73
2023/12/06 08:00:19;;;;;;;42.78;30.70;;;;;;;1.13;100.00;101285.31;5084849;28;20033;-73
2023/12/06 08:02:45;;;;;;;42.95;30.98;;;;;;;1.10;100.00;101287.78;5084742;28;20028;-72
2023/12/06 08:05:11;;;;;;;44.58;31.40;;;;;;;1.11;100.00;101284.38;5083545;28;20024;-70
2023/12/06 08:07:37;;;;;;;46.53;33.17;;;;;;;1.21;100.00;101297.91;5086700;28;20084;-72
2023/12/06 08:10:08;;;;;;;49.80;34.13;;;;;;;1.30;100.00;101292.25;5079080;28;20032;-71
2023/12/06 08:12:34;;;;;;;48.45;34.67;;;;;;;1.41;100.00;101297.97;5078916;28;20029;-71
2023/12/06 08:14:59;;;;;;;47.92;34.22;;;;;;;1.48;100.00;101300.06;5086253;28;20039;-69
2023/12/06 08:17:24;;;;;;;49.05;34.78;;;;;;;1.62;100.00;101311.16;5084153;28;20367;-73
2023/12/06 08:19:50;;;;;;;48.60;34.40;;;;;;;1.71;100.00;101311.59;5084602;28;20119;-70
2023/12/06 08:22:16;;;;;;;47.90;33.83;;;;;;;1.79;100.00;101314.59;5085251;28;20028;-73
2023/12/06 08:24:41;;;;;;;47.53;33.55;;;;;;;1.92;100.00;101306.53;5083489;28;20391;-73
2023/12/06 08:27:06;;;;;;;46.40;31.98;;;;;;;2.05;100.00;101309.69;5086577;28;20020;-72
2023/12/06 08:29:32;;;;;;;44.70;32.25;;;;;;;2.17;100.00;101314.56;5082839;28;20026;-73
2023/12/06 08:31:57;;;;;;;44.80;31.02;;;;;;;2.39;100.00;101322.56;5085850;28;20131;-71
2023/12/06 08:34:22;;;;;;;40.83;30.10;;;;;;;2.54;100.00;101318.88;5082762;28;20036;-72
2023/12/06 08:36:48;;;;;;;41.95;29.17;;;;;;;2.71;100.00;101320.50;5083834;28;20071;-73
2023/12/06 08:39:13;;;;;;;39.90;27.45;;;;;;;2.87;100.00;101316.84;5067157;28;20080;-73
2023/12/06 08:41:38;;;;;;;37.15;26.63;;;;;;;2.85;100.00;101323.69;5082576;28;20085;-70
2023/12/06 08:44:04;;;;;;;34.83;24.58;;;;;;;2.88;100.00;101328.16;5086095;28;20386;-72
2023/12/06 08:46:30;;;;;;;36.83;24.80;;;;;;;2.88;100.00;101331.66;5082861;28;20033;-71
2023/12/06 08:48:56;;;;;;;34.85;24.58;;;;;;;3.04;100.00;101333.22;5084735;28;20028;-73
2023/12/06 08:51:21;;;;;;;32.88;23.38;;;;;;;3.22;100.00;101338.34;5083489;28;20046;-73
2023/12/06 08:53:46;;;;;;;35.97;22.23;;;;;;;3.39;100.00;101340.75;5083409;28;20063;-73
2023/12/06 08:56:13;;;;;;;32.15;21.30;;;;;;;3.61;100.00;101345.16;5083884;28;20067;-70
2023/12/06 08:58:38;;;;;;;31.90;20.95;;;;;;;3.85;100.00;101347.88;5082386;28;20032;-72
2023/12/06 09:01:05;;;;;;;31.63;21.00;;;;;;;4.11;100.00;101348.88;5085649;28;20043;-73
2023/12/06 09:03:30;;;;;;;28.90;19.50;;;;;;;4.28;100.00;101346.00;5082389;28;20020;-72
2023/12/06 09:05:57;;;;;;;28.67;18.52;;;;;;;4.51;100.00;101347.78;5084641;28;20570;-73
2023/12/06 09:08:23;;;;;;;29.60;17.88;;;;;;;4.58;100.00;101343.66;5083630;28;20028;-71
2023/12/06 09:10:49;;;;;;;27.83;18.05;;;;;;;4.69;100.00;101338.84;5083434;28;20024;-73
2023/12/06 09:13:15;;;;;;;27.63;17.00;;;;;;;4.98;100.00;101338.94;5084536;28;20032;-72
2023/12/06 09:15:41;;;;;;;26.90;15.90;;;;;;;5.21;100.00;101337.13;5082155;28;20033;-72
2023/12/06 09:18:06;;;;;;;26.95;16.35;;;;;;;5.31;100.00;101333.97;5085266;28;20039;-71
2023/12/06 09:20:31;;;;;;;27.85;16.40;;;;;;;5.49;100.00;101333.72;5082138;28;20074;-72
2023/12/06 09:22:57;;;;;;;24.90;15.55;;;;;;;5.62;100.00;101329.78;5084200;28;20052;-70
2023/12/06 09:25:22;;;;;;;26.98;16.15;;;;;;;5.68;100.00;101329.97;5083175;28;20030;-72
2023/12/06 09:27:50;;;;;;;28.17;15.80;;;;;;;5.88;100.00;101337.56;5083089;28;20399;-71
2023/12/06 09:30:16;;;;;;;25.83;15.30;;;;;;;6.12;100.00;101337.47;5084047;28;20036;-71
2023/12/06 09:32:41;;;;;;;24.98;14.00;;;;;;;6.43;100.00;101341.88;5082462;28;20082;-69
2023/12/06 09:35:08;;;;;;;25.80;14.35;;;;;;;6.59;100.00;101343.22;5085134;28;20028;-71
2023/12/06 09:37:34;;;;;;;24.77;13.40;;;;;;;6.90;100.00;101336.22;5081354;28;20043;-72
2023/12/06 09:39:59;;;;;;;24.65;13.00;;;;;;;7.18;100.00;101347.47;5083110;28;20473;-71
2023/12/06 09:42:27;;;;;;;24.73;13.32;;;;;;;7.65;100.00;101353.03;5081405;28;20482;-70
2023/12/06 09:44:55;;;;;;;24.55;12.93;;;;;;;7.72;100.00;101346.19;5083388;28;20060;-71
2023/12/06 09:47:23;;;;;;;24.80;12.68;;;;;;;7.39;100.00;101351.50;5074031;28;20032;-73
2023/12/06 09:49:49;;;;;;;24.65;12.80;;;;;;;6.93;100.00;101354.69;5082035;28;20037;-68
2023/12/06 09:52:23;;;;;;;24.48;13.18;;;;;;;6.68;100.00;101360.97;5084894;28;20448;-73
2023/12/06 09:54:50;;;;;;;24.45;13.07;;;;;;;6.35;100.00;101355.63;5079095;28;20032;-74
2023/12/06 09:57:16;;;;;;;24.95;13.40;;;;;;;5.99;100.00;101367.69;5084837;28;20036;-74
2023/12/06 09:59:41;;;;;;;25.02;12.85;;;;;;;5.93;100.00;101373.59;5081112;28;20120;-73
2023/12/06 10:02:07;;;;;;;24.98;13.13;;;;;;;5.80;100.00;101365.31;5083986;28;20417;-73
2023/12/06 10:04:34;;;;;;;24.42;13.40;;;;;;;5.80;100.00;101376.69;5082270;28;20028;-73
2023/12/06 10:07:00;;;;;;;23.65;13.10;;;;;;;6.02;100.00;101369.53;5083272;28;20383;-73
2023/12/06 10:09:25;;;;;;;27.00;13.93;;;;;;;6.15;100.00;101371.69;5082959;28;20016;-73
2023/12/06 10:11:51;;;;;;;26.13;13.18;;;;;;;6.08;100.00;101365.34;5081841;28;20025;-73
2023/12/06 10:14:20;;;;;;;27.45;13.10;;;;;;;6.03;100.00;101366.94;5084363;28;20031;-73
2023/12/06 10:16:47;;;;;;;24.48;13.77;;;;;;;5.86;100.00;101376.00;5080945;28;20376;-73
2023/12/06 10:19:21;;;;;;;24.48;13.98;;;;;;;5.91;100.00;101363.88;5084597;28;20081;-73
2023/12/06 10:21:50;;;;;;;25.15;13.48;;;;;;;5.94;100.00;101375.38;5077825;28;20086;-73
2023/12/06 10:24:16;;;;;;;24.98;13.38;;;;;;;6.07;100.00;101375.78;5084278;28;20028;-73
2023/12/06 10:26:41;;;;;;;23.80;13.15;;;;;;;6.10;100.00;101375.88;5080988;28;20025;-73
2023/12/06 10:29:07;;;;;;;24.73;13.55;;;;;;;6.18;100.00;101369.16;5083744;28;20024;-73
2023/12/06 10:31:41;;;;;;;25.90;12.98;;;;;;;6.46;100.00;101375.22;5082069;28;20024;-73
2023/12/06 10:34:08;;;;;;;25.00;13.27;;;;;;;6.44;100.00;101367.31;5084013;28;20033;-73
2023/12/06 10:36:33;;;;;;;25.67;12.77;;;;;;;6.27;100.00;101366.78;5081725;28;20075;-73
2023/12/06 10:39:00;;;;;;;25.45;12.40;;;;;;;6.16;100.00;101370.84;5082335;28;20068;-72
2023/12/06 10:41:26;;;;;;;25.58;13.07;;;;;;;6.05;100.00;101364.38;5081726;28;20033;-73
2023/12/06 10:43:55;;;;;;;24.45;12.63;;;;;;;6.01;100.00;101368.63;5081694;28;20082;-71
2023/12/06 10:46:21;;;;;;;23.83;12.88;;;;;;;6.01;100.00;101367.75;5083380;28;20028;-72
2023/12/06 10:48:49;;;;;;;24.90;12.55;;;;;;;5.98;100.00;101365.03;5080788;28;20085;-72
2023/12/06 10:51:16;;;;;;;23.42;11.90;;;;;;;6.04;100.00;101365.19;5084543;28;20138;-72
2023/12/06 10:53:43;;;;;;;24.13;11.98;;;;;;;5.98;100.00;101358.03;5076640;28;20032;-72
2023/12/06 10:56:10;;;;;;;25.17;12.40;;;;;;;5.99;100.00;101366.81;5083713;28;20379;-72
2023/12/06 10:58:36;;;;;;;23.67;11.70;;;;;;;6.06;100.00;101359.16;5081442;28;20490;-72
2023/12/06 11:01:02;;;;;;;24.80;12.73;;;;;;;6.09;100.00;101366.25;5081564;28;20047;-73
2023/12/06 11:03:27;;;;;;;23.95;12.52;;;;;;;6.11;100.00;101359.31;5082267;28;20475;-73